sensor_id;sensor_type;location;lat;lon;timestamp;temperature;humidity
2751;DHT22;1383;48.362;10.908;2024-03-25T20:58:24;6.70;36.30
2751;DHT22;1383;48.362;10.908;2024-03-25T21:06:31;6.40;37.20
2751;DHT22;1383;48.362;10.908;2024-03-25T21:19:17;6.30;38.30
2751;DHT22;1383;48.362;10.908;2024-03-25T21:23:00;6.30;38.50
2751;DHT22;1383;48.362;10.908;2024-03-25T21:26:48;6.20;38.80
2751;DHT22;1383;48.362;10.908;2024-03-25T22:28:51;5.80;43.10
2751;DHT22;1383;48.362;10.908;2024-03-25T22:32:06;5.70;43.20
2751;DHT22;1383;48.362;10.908;2024-03-25T22:35:19;5.70;43.60
2751;DHT22;1383;48.362;10.908;2024-03-25T22:42:04;5.80;43.70
2751;DHT22;1383;48.362;10.908;2024-03-25T22:44:30;5.60;44.10
2751;DHT22;1383;48.362;10.908;2024-03-25T22:46:57;5.70;44.50
2751;DHT22;1383;48.362;10.908;2024-03-25T22:49:23;5.60;44.40
2751;DHT22;1383;48.362;10.908;2024-03-25T22:51:49;5.70;44.70
2751;DHT22;1383;48.362;10.908;2024-03-25T22:54:15;5.60;44.70
2751;DHT22;1383;48.362;10.908;2024-03-25T22:56:41;5.60;44.80
2751;DHT22;1383;48.362;10.908;2024-03-25T22:59:07;5.60;44.90
2751;DHT22;1383;48.362;10.908;2024-03-25T23:01:33;5.60;45.00
2751;DHT22;1383;48.362;10.908;2024-03-25T23:03:59;5.60;45.50
2751;DHT22;1383;48.362;10.908;2024-03-25T23:06:25;5.50;45.50
2751;DHT22;1383;48.362;10.908;2024-03-25T23:08:50;5.50;46.20
2751;DHT22;1383;48.362;10.908;2024-03-25T23:11:16;5.50;45.70
2751;DHT22;1383;48.362;10.908;2024-03-25T23:13:43;5.50;45.90
2751;DHT22;1383;48.362;10.908;2024-03-25T23:16:09;5.50;45.90
2751;DHT22;1383;48.362;10.908;2024-03-25T23:18:35;5.50;45.90
2751;DHT22;1383;48.362;10.908;2024-03-25T23:21:02;5.50;46.00
2751;DHT22;1383;48.362;10.908;2024-03-25T23:23:28;5.50;46.10
2751;DHT22;1383;48.362;10.908;2024-03-25T23:25:54;5.50;46.10
2751;DHT22;1383;48.362;10.908;2024-03-25T23:28:20;5.40;46.20
2751;DHT22;1383;48.362;10.908;2024-03-25T23:30:46;5.40;46.30
2751;DHT22;1383;48.362;10.908;2024-03-25T23:33:12;5.40;46.70
2751;DHT22;1383;48.362;10.908;2024-03-25T23:35:37;5.30;46.70
2751;DHT22;1383;48.362;10.908;2024-03-25T23:38:03;5.30;46.90
2751;DHT22;1383;48.362;10.908;2024-03-25T23:40:30;5.30;47.00
2751;DHT22;1383;48.362;10.908;2024-03-25T23:42:56;5.20;47.20
2751;DHT22;1383;48.362;10.908;2024-03-25T23:45:22;5.20;47.30
2751;DHT22;1383;48.362;10.908;2024-03-25T23:47:48;5.20;47.30
2751;DHT22;1383;48.362;10.908;2024-03-25T23:50:14;5.20;48.20
2751;DHT22;1383;48.362;10.908;2024-03-25T23:52:39;5.20;47.50
2751;DHT22;1383;48.362;10.908;2024-03-25T23:55:06;5.20;47.80
2751;DHT22;1383;48.362;10.908;2024-03-25T23:57:32;5.20;47.90
2751;DHT22;1383;48.362;10.908;2024-03-25T23:59:58;5.10;47.90
